createdAt,value
2022-08-23T00:00:16.783Z,57.60
2022-08-23T00:02:49.515Z,56.80
2022-08-23T00:05:21.115Z,57.80
2022-08-23T00:07:51.938Z,57.10
2022-08-23T00:10:23.417Z,57.40
2022-08-23T00:12:55.784Z,58.50
2022-08-23T00:15:26.668Z,58.30
2022-08-23T00:17:57.551Z,58.50
2022-08-23T00:20:28.744Z,59.70
2022-08-23T00:22:59.475Z,59.30
2022-08-23T00:25:30.244Z,57.60
2022-08-23T00:28:02.936Z,57.40
2022-08-23T00:30:33.934Z,58.20
2022-08-23T00:33:05.388Z,58.30
2022-08-23T00:35:36.191Z,58.30
2022-08-23T00:38:33.062Z,58.60
2022-08-23T00:40:57.715Z,58.60
2022-08-23T00:43:51.221Z,59.40
2022-08-23T00:46:54.802Z,59.70
2022-08-23T00:49:27.137Z,60.70
2022-08-23T00:52:03.970Z,59.20
2022-08-23T00:54:35.687Z,61.50
2022-08-23T00:57:09.122Z,60.70
2022-08-23T00:59:41.661Z,61.30
2022-08-23T01:02:13.527Z,60.80
2022-08-23T01:04:48.121Z,62.30
2022-08-23T01:07:27.425Z,63.80
2022-08-23T01:10:03.356Z,66.00
2022-08-23T01:12:40.248Z,64.00
2022-08-23T01:15:22.079Z,65.20
2022-08-23T01:17:57.561Z,64.10
2022-08-23T01:20:29.268Z,64.30
2022-08-23T01:23:04.945Z,62.60
2022-08-23T01:25:37.725Z,63.90
2022-08-23T01:28:08.555Z,64.30
2022-08-23T01:30:39.817Z,63.00
2022-08-23T01:33:11.229Z,62.60
2022-08-23T01:35:45.086Z,63.20
2022-08-23T01:38:16.242Z,63.20
2022-08-23T01:40:48.653Z,62.80
2022-08-23T01:43:20.812Z,64.30
2022-08-23T01:45:53.137Z,65.00
2022-08-23T01:48:25.187Z,66.80
2022-08-23T01:50:55.942Z,69.30
2022-08-23T01:53:26.709Z,65.20
2022-08-23T01:55:59.142Z,65.60
2022-08-23T01:58:31.040Z,66.00
2022-08-23T02:01:02.817Z,64.20
2022-08-23T02:03:33.700Z,65.10
2022-08-23T02:06:04.761Z,65.10
2022-08-23T02:09:17.365Z,65.20
2022-08-23T02:11:51.131Z,66.10
2022-08-23T02:14:23.741Z,65.50
2022-08-23T02:17:03.378Z,67.20
2022-08-23T02:19:36.175Z,67.30
2022-08-23T02:22:08.778Z,68.90
2022-08-23T02:24:43.640Z,69.00
2022-08-23T02:27:17.664Z,69.30
2022-08-23T02:29:50.496Z,69.60
2022-08-23T02:32:26.960Z,70.00
2022-08-23T02:35:04.575Z,68.50
2022-08-23T02:37:37.240Z,68.70
2022-08-23T02:40:09.061Z,67.80
2022-08-23T02:42:41.497Z,67.70
2022-08-23T02:45:13.917Z,68.30
2022-08-23T02:47:44.679Z,69.70
2022-08-23T02:50:15.674Z,70.70
2022-08-23T02:52:47.346Z,71.10
2022-08-23T02:55:18.693Z,71.00
2022-08-23T02:57:51.349Z,71.10
2022-08-23T03:00:24.748Z,71.90
2022-08-23T03:02:56.030Z,72.70
2022-08-23T03:05:27.160Z,73.50
2022-08-23T03:07:58.027Z,74.80
2022-08-23T03:10:28.929Z,74.40
2022-08-23T03:13:01.403Z,74.90
2022-08-23T03:15:32.330Z,74.80
2022-08-23T03:18:03.040Z,75.30
2022-08-23T03:20:33.956Z,76.40
2022-08-23T03:23:04.883Z,77.40
2022-08-23T03:25:35.612Z,78.00
2022-08-23T03:28:08.938Z,79.00
2022-08-23T03:30:39.699Z,79.00
2022-08-23T03:33:10.449Z,78.60
2022-08-23T03:35:41.198Z,80.10
2022-08-23T03:38:12.359Z,81.00
2022-08-23T03:40:43.097Z,81.60
2022-08-23T03:43:15.662Z,82.30
2022-08-23T03:45:46.416Z,82.80
2022-08-23T03:48:17.500Z,83.40
2022-08-23T03:50:48.401Z,84.00
2022-08-23T03:53:19.177Z,84.70
2022-08-23T03:55:50.139Z,84.70
2022-08-23T03:58:23.024Z,84.40
2022-08-23T04:00:53.754Z,84.40
2022-08-23T04:03:24.458Z,84.40
2022-08-23T04:05:55.190Z,85.00
2022-08-23T04:08:28.068Z,85.70
2022-08-23T04:11:05.226Z,86.00
2022-08-23T04:13:37.693Z,86.80
2022-08-23T04:16:09.955Z,86.70
2022-08-23T04:18:40.728Z,87.40
2022-08-23T04:21:15.029Z,87.00
2022-08-23T04:23:45.784Z,87.00
2022-08-23T04:26:16.606Z,88.50
2022-08-23T04:28:48.952Z,88.80
2022-08-23T04:31:21.015Z,89.00
2022-08-23T04:33:53.185Z,88.50
2022-08-23T04:36:24.398Z,89.30
2022-08-23T04:38:56.200Z,90.10
2022-08-23T04:41:43.524Z,90.30
2022-08-23T04:44:16.342Z,90.60
2022-08-23T04:46:49.493Z,91.10
2022-08-23T04:49:20.882Z,91.00
2022-08-23T04:51:55.316Z,91.60
2022-08-23T04:54:26.280Z,92.50
2022-08-23T04:56:57.311Z,92.20
2022-08-23T04:59:29.728Z,92.50
2022-08-23T05:02:00.499Z,92.50
2022-08-23T05:04:31.403Z,92.60
2022-08-23T05:07:02.107Z,92.80
2022-08-23T05:09:32.830Z,92.90
2022-08-23T05:12:03.576Z,93.10
2022-08-23T05:14:35.991Z,93.40
2022-08-23T05:17:06.850Z,93.40
2022-08-23T05:19:39.405Z,93.60
2022-08-23T05:22:16.183Z,93.90
2022-08-23T05:24:46.924Z,94.00
2022-08-23T05:27:17.679Z,94.30
2022-08-23T05:29:50.724Z,94.60
2022-08-23T05:32:21.511Z,94.80
2022-08-23T05:34:52.405Z,95.00
2022-08-23T05:37:23.137Z,95.20
2022-08-23T05:39:54.887Z,95.50
2022-08-23T05:42:26.350Z,95.90
2022-08-23T05:44:58.966Z,95.90
2022-08-23T05:47:31.889Z,96.10
2022-08-23T05:50:04.742Z,96.30
2022-08-23T05:52:35.461Z,96.70
2022-08-23T05:55:06.757Z,96.90
2022-08-23T05:57:38.450Z,97.30
2022-08-23T06:00:14.383Z,96.90
2022-08-23T06:02:45.551Z,97.20
2022-08-23T06:05:16.320Z,97.40
2022-08-23T06:07:47.047Z,97.70
2022-08-23T06:10:21.594Z,97.60
2022-08-23T06:12:52.316Z,97.50
2022-08-23T06:15:24.649Z,97.90
2022-08-23T06:17:55.431Z,98.10
2022-08-23T06:20:26.210Z,98.20
2022-08-23T06:22:57.102Z,98.70
2022-08-23T06:25:27.808Z,98.90
2022-08-23T06:27:58.599Z,99.10
2022-08-23T06:30:32.180Z,99.10
2022-08-23T06:33:02.899Z,99.50
2022-08-23T06:35:38.870Z,99.60
2022-08-23T06:38:10.495Z,99.70
2022-08-23T06:40:41.225Z,99.80
2022-08-23T06:43:12.114Z,99.90
2022-08-23T06:45:44.803Z,99.90
2022-08-23T06:48:25.800Z,99.90
2022-08-23T06:50:56.536Z,99.90
2022-08-23T06:53:27.308Z,99.90
2022-08-23T06:55:59.996Z,99.90
2022-08-23T06:58:30.740Z,99.90
2022-08-23T07:01:35.030Z,99.90
2022-08-23T07:04:05.295Z,99.90
2022-08-23T07:06:36.685Z,99.90
2022-08-23T07:09:07.955Z,99.90
2022-08-23T07:11:40.216Z,99.90
2022-08-23T07:14:13.468Z,99.90
2022-08-23T07:16:48.869Z,99.90
2022-08-23T07:19:20.715Z,99.90
2022-08-23T07:21:52.017Z,99.90
2022-08-23T07:24:23.429Z,99.90
2022-08-23T07:26:54.564Z,99.90
2022-08-23T07:29:26.164Z,99.90
2022-08-23T07:31:59.610Z,99.90
2022-08-23T07:34:31.183Z,99.90
2022-08-23T07:37:02.406Z,99.90
2022-08-23T07:39:33.554Z,99.90
2022-08-23T07:42:22.950Z,99.90
2022-08-23T07:44:55.462Z,99.90
2022-08-23T07:47:31.259Z,99.90
2022-08-23T07:50:02.051Z,99.90
2022-08-23T07:52:32.771Z,99.90
2022-08-23T07:55:03.508Z,99.90
2022-08-23T07:57:34.226Z,99.90
2022-08-23T08:00:05.121Z,99.90
2022-08-23T08:02:37.491Z,99.90
2022-08-23T08:05:08.965Z,99.90
2022-08-23T08:07:39.906Z,99.90
2022-08-23T08:10:11.457Z,99.90
2022-08-23T08:12:42.186Z,99.90
2022-08-23T08:15:14.131Z,99.90
2022-08-23T08:17:49.443Z,99.90
2022-08-23T08:20:20.602Z,99.90
2022-08-23T08:22:56.380Z,99.90
2022-08-23T08:25:33.634Z,99.90
2022-08-23T08:28:04.717Z,99.90
2022-08-23T08:30:35.449Z,99.90
2022-08-23T08:33:08.282Z,99.90
2022-08-23T08:35:39.416Z,99.90
2022-08-23T08:38:10.351Z,99.90
2022-08-23T08:40:42.956Z,99.90
2022-08-23T08:43:33.085Z,99.90
2022-08-23T08:46:08.854Z,99.90
2022-08-23T08:48:45.599Z,99.90
2022-08-23T08:51:35.303Z,99.90
2022-08-23T08:54:10.793Z,99.90
2022-08-23T08:56:42.664Z,99.90
2022-08-23T08:59:17.571Z,99.90
2022-08-23T09:01:48.702Z,99.90
2022-08-23T09:04:23.024Z,99.90
2022-08-23T09:07:04.830Z,99.90
2022-08-23T09:09:54.773Z,99.90
2022-08-23T09:12:35.590Z,99.90
2022-08-23T09:15:20.710Z,99.90
2022-08-23T09:17:56.402Z,99.90
2022-08-23T09:20:33.315Z,99.90
2022-08-23T09:23:11.188Z,99.90
2022-08-23T09:25:42.247Z,99.90
2022-08-23T09:28:13.016Z,99.90
2022-08-23T09:30:53.379Z,99.90
2022-08-23T09:33:26.294Z,99.90
2022-08-23T09:36:25.112Z,99.90
2022-08-23T09:38:59.434Z,99.90
2022-08-23T09:41:34.208Z,99.90
2022-08-23T09:44:05.149Z,99.90
2022-08-23T09:46:39.825Z,99.90
2022-08-23T09:49:27.973Z,99.90
2022-08-23T09:52:04.215Z,99.90
2022-08-23T09:54:39.399Z,99.90
2022-08-23T09:57:14.560Z,99.90
2022-08-23T09:59:47.620Z,99.90
2022-08-23T10:02:27.222Z,99.90
2022-08-23T10:05:04.234Z,99.90
2022-08-23T10:07:42.679Z,99.90
2022-08-23T10:10:20.603Z,99.90
2022-08-23T10:12:51.366Z,99.90
2022-08-23T10:15:24.119Z,99.90
2022-08-23T10:18:03.879Z,99.90
2022-08-23T10:20:44.562Z,99.90
2022-08-23T10:23:30.607Z,99.90
2022-08-23T10:26:03.687Z,99.90
2022-08-23T10:28:59.048Z,99.90
2022-08-23T10:31:39.084Z,99.90
2022-08-23T10:34:35.909Z,99.90
2022-08-23T10:37:29.480Z,99.90
2022-08-23T10:40:05.815Z,99.90
2022-08-23T10:42:43.788Z,99.90
2022-08-23T10:45:27.285Z,99.90
2022-08-23T10:48:08.764Z,99.90
2022-08-23T10:50:55.566Z,99.90
2022-08-23T10:53:33.956Z,99.90
2022-08-23T10:56:07.088Z,99.90
2022-08-23T10:58:47.361Z,99.90
2022-08-23T11:01:21.441Z,99.90
2022-08-23T11:04:04.539Z,99.90
2022-08-23T11:06:53.701Z,99.90
2022-08-23T11:09:54.859Z,99.90
2022-08-23T11:12:36.564Z,99.90
2022-08-23T11:15:22.222Z,99.90
2022-08-23T11:18:04.037Z,99.90
2022-08-23T11:21:03.680Z,99.90
2022-08-23T11:23:56.747Z,99.90
2022-08-23T11:27:08.808Z,99.90
2022-08-23T11:29:47.045Z,99.90
2022-08-23T11:32:38.831Z,99.90
2022-08-23T11:35:30.347Z,99.90
2022-08-23T11:38:05.342Z,99.90
2022-08-23T11:40:59.297Z,99.90
2022-08-23T11:43:36.873Z,99.90
2022-08-23T11:46:32.525Z,99.90
2022-08-23T11:49:26.640Z,99.90
2022-08-23T11:52:06.293Z,99.90
2022-08-23T11:55:06.033Z,99.90
2022-08-23T11:57:57.064Z,99.90
2022-08-23T12:00:34.429Z,99.90
2022-08-23T12:03:09.635Z,99.90
2022-08-23T12:06:00.547Z,99.90
2022-08-23T12:08:51.473Z,99.90
2022-08-23T12:11:23.561Z,99.90
2022-08-23T12:13:58.705Z,99.90
2022-08-23T12:16:44.250Z,99.90
2022-08-23T12:19:39.454Z,99.90
2022-08-23T12:22:15.065Z,99.90
2022-08-23T12:24:52.059Z,99.90
2022-08-23T12:27:32.465Z,99.90
2022-08-23T12:30:09.056Z,99.90
2022-08-23T12:32:45.754Z,99.90
2022-08-23T12:35:37.045Z,99.90
2022-08-23T12:38:13.375Z,99.90
2022-08-23T12:40:46.100Z,99.90
2022-08-23T12:43:23.191Z,99.90
2022-08-23T12:45:56.515Z,99.90
2022-08-23T12:48:30.473Z,99.90
2022-08-23T12:51:05.607Z,99.90
2022-08-23T12:53:44.061Z,99.90
2022-08-23T12:56:31.517Z,99.90
2022-08-23T12:59:06.509Z,99.90
2022-08-23T13:01:39.846Z,99.90
2022-08-23T13:04:14.356Z,99.90
2022-08-23T13:06:50.006Z,99.90
2022-08-23T13:09:25.359Z,99.90
2022-08-23T13:11:57.470Z,99.90
2022-08-23T13:14:36.497Z,99.90
2022-08-23T13:17:22.159Z,99.90
2022-08-23T13:19:55.455Z,99.90
2022-08-23T13:22:29.922Z,99.90
2022-08-23T13:25:28.231Z,99.90
2022-08-23T13:28:01.767Z,99.90
2022-08-23T13:30:33.920Z,99.90
2022-08-23T13:33:26.885Z,99.90
2022-08-23T13:36:13.319Z,99.90
2022-08-23T13:38:46.966Z,99.90
2022-08-23T13:41:38.728Z,99.90
2022-08-23T13:44:15.663Z,99.90
2022-08-23T13:46:51.013Z,99.90
2022-08-23T13:49:24.872Z,99.90
2022-08-23T13:52:41.670Z,99.90
2022-08-23T13:55:03.704Z,99.90
2022-08-23T13:57:37.932Z,99.90
2022-08-23T14:00:12.112Z,99.90
2022-08-23T14:02:45.270Z,99.90
2022-08-23T14:05:16.064Z,99.90
2022-08-23T14:07:47.190Z,99.90
2022-08-23T14:10:19.732Z,99.90
2022-08-23T14:12:51.989Z,99.90
2022-08-23T14:15:54.326Z,99.90
2022-08-23T14:18:14.282Z,99.90
2022-08-23T14:20:46.286Z,99.90
2022-08-23T14:23:19.723Z,99.90
2022-08-23T14:25:53.845Z,99.90
2022-08-23T14:28:26.936Z,99.90
2022-08-23T14:31:00.569Z,99.90
2022-08-23T14:33:31.324Z,99.90
2022-08-23T14:36:02.057Z,99.90
2022-08-23T14:38:32.823Z,99.90
2022-08-23T14:41:07.936Z,99.90
2022-08-23T14:43:40.324Z,99.90
2022-08-23T14:46:11.136Z,99.90
2022-08-23T14:48:42.111Z,99.90
2022-08-23T14:51:25.878Z,99.90
2022-08-23T14:53:57.693Z,99.90
2022-08-23T14:56:30.089Z,99.90
2022-08-23T14:59:00.826Z,99.90
2022-08-23T15:01:31.713Z,99.90
2022-08-23T15:04:04.507Z,99.90
2022-08-23T15:06:35.255Z,99.90
2022-08-23T15:09:06.120Z,99.90
2022-08-23T15:14:29.221Z,99.90
2022-08-23T15:17:00.285Z,99.90
2022-08-23T15:19:31.205Z,99.90
2022-08-23T15:22:06.467Z,99.90
2022-08-23T15:24:49.724Z,99.10
2022-08-23T15:27:22.503Z,95.90
2022-08-23T15:29:53.308Z,93.90
2022-08-23T15:32:24.084Z,91.50
2022-08-23T15:34:54.939Z,83.70
2022-08-23T15:37:25.825Z,82.90
2022-08-23T15:39:56.604Z,79.80
2022-08-23T15:42:29.463Z,76.80
2022-08-23T15:45:02.377Z,73.90
2022-08-23T15:47:36.412Z,70.90
2022-08-23T15:50:08.529Z,70.60
2022-08-23T15:52:39.292Z,72.60
2022-08-23T15:55:10.613Z,71.20
2022-08-23T15:57:47.763Z,68.10
2022-08-23T16:00:20.027Z,69.70
2022-08-23T16:03:18.827Z,72.20
2022-08-23T16:05:42.155Z,69.60
2022-08-23T16:08:20.872Z,66.20
2022-08-23T16:10:51.641Z,65.10
2022-08-23T16:13:24.580Z,65.00
2022-08-23T16:15:55.753Z,63.30
2022-08-23T16:18:26.663Z,62.90
2022-08-23T16:20:57.383Z,62.20
2022-08-23T16:23:28.163Z,59.20
2022-08-23T16:26:01.175Z,62.50
2022-08-23T16:28:33.901Z,62.90
2022-08-23T16:31:04.699Z,62.90
2022-08-23T16:33:35.462Z,64.90
2022-08-23T16:36:07.014Z,69.90
2022-08-23T16:38:38.516Z,70.10
2022-08-23T16:41:09.704Z,71.30
2022-08-23T16:43:42.128Z,69.40
2022-08-23T16:46:13.247Z,66.90
2022-08-23T16:48:44.711Z,61.90
2022-08-23T16:51:16.008Z,62.30
2022-08-23T16:54:01.787Z,59.80
2022-08-23T16:56:34.834Z,59.90
2022-08-23T16:59:09.138Z,59.40
2022-08-23T17:01:48.668Z,57.90
2022-08-23T17:04:20.320Z,59.20
2022-08-23T17:06:51.228Z,59.50
2022-08-23T17:09:22.516Z,58.10
2022-08-23T17:11:54.475Z,60.50
2022-08-23T17:14:26.957Z,57.40
2022-08-23T17:16:57.712Z,57.30
2022-08-23T17:19:28.518Z,57.90
2022-08-23T17:21:59.225Z,55.60
2022-08-23T17:24:29.998Z,53.70
2022-08-23T17:27:00.880Z,54.30
2022-08-23T17:29:37.228Z,55.90
2022-08-23T17:32:09.099Z,54.80
2022-08-23T17:34:40.477Z,56.60
2022-08-23T17:37:19.128Z,55.60
2022-08-23T17:39:50.582Z,55.10
2022-08-23T17:42:23.999Z,53.70
2022-08-23T17:44:56.647Z,52.50
2022-08-23T17:47:27.723Z,55.10
2022-08-23T17:49:58.469Z,54.30
2022-08-23T17:52:29.611Z,54.20
2022-08-23T17:55:00.697Z,55.60
2022-08-23T17:57:33.079Z,54.40
2022-08-23T18:00:05.895Z,53.70
2022-08-23T18:02:36.800Z,55.30
2022-08-23T18:05:08.092Z,54.00
2022-08-23T18:07:38.891Z,54.30
2022-08-23T18:10:13.179Z,53.10
2022-08-23T18:12:44.079Z,53.70
2022-08-23T18:15:16.757Z,53.90
2022-08-23T18:17:47.525Z,54.80
2022-08-23T18:20:18.994Z,53.00
2022-08-23T18:22:52.002Z,56.00
2022-08-23T18:25:22.827Z,56.70
2022-08-23T18:28:07.558Z,56.40
2022-08-23T18:30:47.128Z,56.90
2022-08-23T18:33:18.990Z,55.60
2022-08-23T18:35:52.001Z,53.70
2022-08-23T18:38:22.842Z,52.60
2022-08-23T18:40:53.547Z,56.80
2022-08-23T18:43:26.242Z,55.30
2022-08-23T18:46:05.576Z,56.40
2022-08-23T18:48:37.230Z,58.60
2022-08-23T18:51:13.976Z,56.10
2022-08-23T18:53:49.443Z,56.70
2022-08-23T18:56:20.207Z,55.80
2022-08-23T18:58:51.334Z,54.00
2022-08-23T19:01:31.239Z,54.20
2022-08-23T19:04:04.469Z,56.40
2022-08-23T19:06:37.725Z,55.30
2022-08-23T19:09:11.399Z,56.40
2022-08-23T19:11:44.104Z,56.80
2022-08-23T19:14:15.054Z,56.80
2022-08-23T19:16:48.773Z,55.40
2022-08-23T19:19:20.763Z,57.10
2022-08-23T19:21:51.604Z,56.20
2022-08-23T19:24:22.359Z,59.00
2022-08-23T19:26:53.446Z,57.40
2022-08-23T19:29:24.581Z,58.60
2022-08-23T19:31:57.012Z,59.60
2022-08-23T19:34:28.160Z,57.20
2022-08-23T19:37:01.048Z,56.90
2022-08-23T19:39:33.231Z,58.10
2022-08-23T19:42:06.460Z,58.90
2022-08-23T19:44:40.092Z,59.70
2022-08-23T19:47:13.407Z,58.80
2022-08-23T19:49:51.211Z,61.30
2022-08-23T19:52:21.949Z,59.40
2022-08-23T19:54:52.704Z,62.60
2022-08-23T19:57:23.412Z,63.40
2022-08-23T19:59:54.130Z,62.00
2022-08-23T20:02:26.540Z,66.00
2022-08-23T20:04:57.553Z,62.70
2022-08-23T20:07:28.242Z,62.80
2022-08-23T20:10:01.933Z,63.80
2022-08-23T20:12:33.952Z,70.50
2022-08-23T20:15:05.708Z,65.90
2022-08-23T20:17:38.962Z,65.70
2022-08-23T20:20:11.956Z,68.30
2022-08-23T20:22:59.899Z,63.40
2022-08-23T20:25:31.484Z,63.90
2022-08-23T20:28:05.829Z,64.30
2022-08-23T20:30:38.285Z,66.40
2022-08-23T20:33:10.841Z,63.50
2022-08-23T20:35:41.617Z,65.80
2022-08-23T20:38:22.367Z,67.80
2022-08-23T20:41:03.335Z,65.00
2022-08-23T20:43:35.217Z,67.10
2022-08-23T20:46:06.359Z,66.30
2022-08-23T20:48:38.756Z,68.70
2022-08-23T20:51:16.379Z,66.80
2022-08-23T20:53:47.498Z,67.20
2022-08-23T20:56:18.459Z,64.90
2022-08-23T20:58:52.036Z,65.80
2022-08-23T21:01:23.479Z,65.70
2022-08-23T21:03:55.876Z,66.20
2022-08-23T21:06:28.991Z,67.90
2022-08-23T21:09:02.172Z,66.80
2022-08-23T21:11:33.076Z,68.50
2022-08-23T21:14:04.800Z,67.90
2022-08-23T21:16:35.625Z,66.30
2022-08-23T21:19:08.604Z,65.90
2022-08-23T21:21:41.372Z,68.50
2022-08-23T21:24:14.168Z,69.50
2022-08-23T21:26:45.348Z,69.10
2022-08-23T21:29:16.114Z,70.00
2022-08-23T21:31:48.182Z,66.90
2022-08-23T21:34:20.836Z,68.30
2022-08-23T21:36:53.114Z,69.10
2022-08-23T21:39:23.838Z,68.10
2022-08-23T21:41:56.542Z,67.90
2022-08-23T21:44:27.369Z,66.70
2022-08-23T21:46:58.072Z,68.90
2022-08-23T21:49:30.432Z,68.70
2022-08-23T21:52:01.153Z,69.10
2022-08-23T21:54:31.880Z,66.20
2022-08-23T21:57:02.649Z,67.60
2022-08-23T21:59:33.437Z,66.10
2022-08-23T22:02:04.409Z,64.10
2022-08-23T22:04:36.870Z,67.10
2022-08-23T22:07:07.840Z,67.70
2022-08-23T22:09:38.583Z,66.30
2022-08-23T22:12:10.420Z,67.10
2022-08-23T22:14:41.193Z,68.20
2022-08-23T22:17:11.912Z,66.30
2022-08-23T22:19:44.541Z,67.30
2022-08-23T22:22:15.820Z,66.20
2022-08-23T22:24:46.623Z,68.80
2022-08-23T22:27:17.346Z,65.30
2022-08-23T22:29:48.782Z,66.10
2022-08-23T22:32:19.564Z,68.50
2022-08-23T22:34:51.989Z,70.50
2022-08-23T22:37:22.713Z,68.00
2022-08-23T22:39:53.467Z,68.90
2022-08-23T22:42:24.329Z,67.60
2022-08-23T22:44:57.803Z,67.50
2022-08-23T22:47:28.784Z,70.10
2022-08-23T22:50:01.254Z,66.70
2022-08-23T22:52:32.108Z,69.70
2022-08-23T22:55:02.817Z,70.30
2022-08-23T22:57:33.644Z,70.30
2022-08-23T23:00:10.883Z,66.60
2022-08-23T23:02:42.107Z,68.90
2022-08-23T23:05:14.684Z,70.80
2022-08-23T23:08:02.207Z,70.50
2022-08-23T23:10:33.494Z,71.00
2022-08-23T23:13:05.615Z,71.60
2022-08-23T23:15:36.310Z,70.20
2022-08-23T23:18:07.153Z,71.60
2022-08-23T23:20:40.071Z,69.20
2022-08-23T23:23:13.169Z,69.00
2022-08-23T23:25:44.462Z,70.80
2022-08-23T23:28:16.994Z,71.00
2022-08-23T23:30:49.320Z,71.40
2022-08-23T23:33:21.413Z,71.00
2022-08-23T23:35:54.201Z,70.00
2022-08-23T23:38:25.138Z,70.40
2022-08-23T23:40:55.831Z,70.20
2022-08-23T23:43:26.548Z,69.30
2022-08-23T23:45:58.390Z,70.00
2022-08-23T23:48:29.145Z,70.10
2022-08-23T23:51:01.554Z,69.90
2022-08-23T23:53:32.313Z,70.40
2022-08-23T23:56:04.111Z,71.00
2022-08-23T23:58:35.382Z,71.00
